createdAt,value
2022-12-07T00:01:41.788Z,-10.86
2022-12-07T00:04:12.888Z,-10.91
2022-12-07T00:06:43.270Z,-10.93
2022-12-07T00:09:15.653Z,-11.02
2022-12-07T00:11:43.359Z,-11.05
2022-12-07T00:14:15.694Z,-11.06
2022-12-07T00:16:43.543Z,-11.06
2022-12-07T00:19:12.101Z,-11.14
2022-12-07T00:21:39.583Z,-11.17
2022-12-07T00:24:07.086Z,-11.24
2022-12-07T00:26:36.875Z,-11.22
2022-12-07T00:29:18.547Z,-11.18
2022-12-07T00:31:45.558Z,-11.25
2022-12-07T00:34:21.102Z,-11.32
2022-12-07T00:36:48.585Z,-11.33
2022-12-07T00:39:16.131Z,-11.37
2022-12-07T00:41:43.148Z,-11.35
2022-12-07T00:44:10.413Z,-11.39
2022-12-07T00:46:37.967Z,-11.39
2022-12-07T00:49:05.001Z,-11.45
2022-12-07T00:51:32.096Z,-11.51
2022-12-07T00:53:58.976Z,-11.49
2022-12-07T00:56:28.142Z,-11.45
2022-12-07T00:58:57.142Z,-11.48
2022-12-07T01:01:25.358Z,-11.48
2022-12-07T01:03:52.451Z,-11.51
2022-12-07T01:06:21.381Z,-11.47
2022-12-07T01:08:48.332Z,-11.48
2022-12-07T01:11:17.728Z,-11.50
2022-12-07T01:13:45.223Z,-11.51
2022-12-07T01:16:14.691Z,-11.52
2022-12-07T01:18:42.137Z,-11.55
2022-12-07T01:21:12.917Z,-11.55
2022-12-07T01:23:40.190Z,-11.57
2022-12-07T01:26:09.641Z,-11.60
2022-12-07T01:28:36.664Z,-11.56
2022-12-07T01:31:16.397Z,-11.56
2022-12-07T01:33:48.660Z,-11.66
2022-12-07T01:36:20.605Z,-11.71
2022-12-07T01:38:49.141Z,-11.76
2022-12-07T01:41:17.293Z,-11.82
2022-12-07T01:44:10.191Z,-11.78
2022-12-07T01:46:37.413Z,-11.75
2022-12-07T01:49:10.643Z,-11.81
2022-12-07T01:51:38.774Z,-11.83
2022-12-07T01:54:05.809Z,-11.83
2022-12-07T01:56:33.846Z,-11.87
2022-12-07T01:59:01.762Z,-11.91
2022-12-07T02:01:29.443Z,-11.90
2022-12-07T02:03:56.811Z,-11.91
2022-12-07T02:06:26.185Z,-11.90
2022-12-07T02:08:53.600Z,-11.92
2022-12-07T02:11:20.891Z,-11.93
2022-12-07T02:13:48.279Z,-11.92
2022-12-07T02:16:39.260Z,-11.98
2022-12-07T02:19:32.344Z,-11.97
2022-12-07T02:22:05.584Z,-11.97
2022-12-07T02:24:38.775Z,-12.01
2022-12-07T02:27:42.212Z,-12.03
2022-12-07T02:30:12.214Z,-12.01
2022-12-07T02:33:00.391Z,-11.98
2022-12-07T02:35:34.134Z,-12.05
2022-12-07T02:38:09.704Z,-12.08
2022-12-07T02:40:42.558Z,-12.07
2022-12-07T02:43:21.873Z,-12.11
2022-12-07T02:45:49.408Z,-12.18
2022-12-07T02:48:17.739Z,-12.18
2022-12-07T02:50:54.642Z,-12.19
2022-12-07T02:53:31.980Z,-12.24
2022-12-07T02:56:00.873Z,-12.28
2022-12-07T02:58:42.307Z,-12.30
2022-12-07T03:01:28.200Z,-12.28
2022-12-07T03:04:21.265Z,-12.28
2022-12-07T03:06:55.783Z,-12.25
2022-12-07T03:09:34.313Z,-12.32
2022-12-07T03:12:18.478Z,-12.30
2022-12-07T03:14:54.116Z,-12.33
2022-12-07T03:17:26.332Z,-12.43
2022-12-07T03:19:54.781Z,-12.44
2022-12-07T03:22:23.314Z,-12.44
2022-12-07T03:24:55.332Z,-12.46
2022-12-07T03:27:25.280Z,-12.43
2022-12-07T03:30:27.470Z,-12.40
2022-12-07T03:33:04.874Z,-12.49
2022-12-07T03:35:41.540Z,-12.51
2022-12-07T03:38:19.243Z,-12.50
2022-12-07T03:40:53.238Z,-12.54
2022-12-07T03:43:20.563Z,-12.57
2022-12-07T03:46:02.924Z,-12.49
2022-12-07T03:48:38.477Z,-12.51
2022-12-07T03:51:21.411Z,-12.38
2022-12-07T03:53:54.490Z,-12.42
2022-12-07T03:56:23.027Z,-12.46
2022-12-07T03:58:50.489Z,-12.40
2022-12-07T04:01:19.461Z,-12.48
2022-12-07T04:03:46.732Z,-12.48
2022-12-07T04:06:13.754Z,-12.42
2022-12-07T04:08:40.901Z,-12.40
2022-12-07T04:11:09.320Z,-12.40
2022-12-07T04:13:56.211Z,-12.40
2022-12-07T04:16:23.433Z,-12.50
2022-12-07T04:18:50.630Z,-12.51
2022-12-07T04:21:20.171Z,-12.57
2022-12-07T04:23:47.393Z,-12.53
2022-12-07T04:26:14.367Z,-12.46
2022-12-07T04:28:41.391Z,-12.48
2022-12-07T04:31:08.989Z,-12.51
2022-12-07T04:33:36.702Z,-12.50
2022-12-07T04:36:04.650Z,-12.51
2022-12-07T04:38:31.945Z,-12.49
2022-12-07T04:40:59.967Z,-12.45
2022-12-07T04:43:26.861Z,-12.49
2022-12-07T04:45:53.994Z,-12.42
2022-12-07T04:48:20.998Z,-12.43
2022-12-07T04:50:50.767Z,-12.40
2022-12-07T04:53:18.021Z,-12.44
2022-12-07T04:55:46.061Z,-12.40
2022-12-07T04:58:13.595Z,-12.38
2022-12-07T05:00:40.981Z,-12.44
2022-12-07T05:03:08.638Z,-12.41
2022-12-07T05:05:40.047Z,-12.41
2022-12-07T05:08:10.806Z,-12.54
2022-12-07T05:10:40.373Z,-12.50
2022-12-07T05:13:08.743Z,-12.52
2022-12-07T05:15:38.493Z,-12.53
2022-12-07T05:18:18.394Z,-12.54
2022-12-07T05:21:22.210Z,-12.56
2022-12-07T05:24:00.028Z,-12.42
2022-12-07T05:26:27.853Z,-12.42
2022-12-07T05:28:56.379Z,-12.41
2022-12-07T05:31:24.599Z,-12.32
2022-12-07T05:33:52.230Z,-12.40
2022-12-07T05:36:19.328Z,-12.42
2022-12-07T05:38:46.575Z,-12.38
2022-12-07T05:41:36.423Z,-12.45
2022-12-07T05:44:04.618Z,-12.39
2022-12-07T05:46:39.171Z,-12.36
2022-12-07T05:49:06.186Z,-12.34
2022-12-07T05:51:33.199Z,-12.36
2022-12-07T05:54:00.253Z,-12.33
2022-12-07T05:56:28.210Z,-12.31
2022-12-07T05:59:14.060Z,-12.36
2022-12-07T06:01:41.430Z,-12.38
2022-12-07T06:04:08.903Z,-12.32
2022-12-07T06:06:35.973Z,-12.24
2022-12-07T06:09:03.989Z,-12.14
2022-12-07T06:14:30.880Z,-12.05
2022-12-07T06:16:58.212Z,-12.09
2022-12-07T06:19:25.259Z,-12.12
2022-12-07T06:21:52.466Z,-12.12
2022-12-07T06:24:19.541Z,-12.14
2022-12-07T06:26:46.538Z,-12.08
2022-12-07T06:29:14.107Z,-12.06
2022-12-07T06:31:41.874Z,-11.99
2022-12-07T06:34:16.231Z,-11.94
2022-12-07T06:36:43.851Z,-11.95
2022-12-07T06:39:11.520Z,-11.95
2022-12-07T06:44:20.639Z,-11.88
2022-12-07T06:46:48.735Z,-11.84
2022-12-07T06:49:16.110Z,-11.81
2022-12-07T06:51:43.592Z,-11.73
2022-12-07T06:54:11.666Z,-11.66
2022-12-07T06:56:38.871Z,-11.59
2022-12-07T06:59:07.575Z,-11.53
2022-12-07T07:01:37.828Z,-11.48
2022-12-07T07:04:05.425Z,-11.27
2022-12-07T07:06:32.630Z,-11.03
2022-12-07T07:09:00.215Z,-10.91
2022-12-07T07:11:27.360Z,-10.76
2022-12-07T07:13:54.979Z,-10.66
2022-12-07T07:16:22.111Z,-10.47
2022-12-07T07:18:49.207Z,-10.40
2022-12-07T07:21:16.155Z,-10.21
2022-12-07T07:23:43.192Z,-10.19
2022-12-07T07:26:10.167Z,-10.03
2022-12-07T07:28:37.241Z,-9.81
2022-12-07T07:31:06.470Z,-9.73
2022-12-07T07:33:33.442Z,-9.55
2022-12-07T07:36:00.398Z,-9.32
2022-12-07T07:38:27.521Z,-9.22
2022-12-07T07:40:54.480Z,-9.10
2022-12-07T07:43:23.331Z,-8.92
2022-12-07T07:45:50.416Z,-8.79
2022-12-07T07:48:17.404Z,-8.60
2022-12-07T07:50:44.499Z,-8.44
2022-12-07T07:53:11.627Z,-8.22
2022-12-07T07:55:38.697Z,-8.00
2022-12-07T07:58:05.806Z,-7.91
2022-12-07T08:00:34.558Z,-7.72
2022-12-07T08:03:01.694Z,-7.70
2022-12-07T08:05:28.765Z,-7.45
2022-12-07T08:07:55.885Z,-7.17
2022-12-07T08:10:22.863Z,-7.16
2022-12-07T08:13:09.935Z,-6.97
2022-12-07T08:15:39.457Z,-6.88
2022-12-07T08:20:48.167Z,-6.83
2022-12-07T08:23:15.307Z,-6.74
2022-12-07T08:25:42.277Z,-6.48
2022-12-07T08:28:09.262Z,-6.34
2022-12-07T08:30:36.431Z,-5.95
2022-12-07T08:33:03.542Z,-5.79
2022-12-07T08:35:30.611Z,-5.71
2022-12-07T08:37:59.057Z,-5.36
2022-12-07T08:40:26.151Z,-4.99
2022-12-07T08:42:53.333Z,-4.98
2022-12-07T08:45:26.643Z,-4.81
2022-12-07T08:48:04.686Z,-4.59
2022-12-07T08:50:32.937Z,-4.34
2022-12-07T08:53:00.715Z,-4.23
2022-12-07T08:55:28.744Z,-4.18
2022-12-07T08:57:56.228Z,-4.25
2022-12-07T09:00:23.409Z,-4.05
2022-12-07T09:02:50.466Z,-3.81
2022-12-07T09:05:17.565Z,-3.58
2022-12-07T09:07:46.851Z,-3.67
2022-12-07T09:10:13.887Z,-3.71
2022-12-07T09:12:41.023Z,-3.58
2022-12-07T09:15:09.261Z,-3.66
2022-12-07T09:17:38.147Z,-3.46
2022-12-07T09:20:08.706Z,-3.59
2022-12-07T09:22:35.824Z,-3.67
2022-12-07T09:25:07.788Z,-3.69
2022-12-07T09:27:35.496Z,-3.49
2022-12-07T09:30:03.164Z,-3.41
2022-12-07T09:32:31.113Z,-3.35
2022-12-07T09:34:58.297Z,-3.18
2022-12-07T09:37:25.368Z,-3.07
2022-12-07T09:39:52.340Z,-2.94
2022-12-07T09:42:30.238Z,-2.60
2022-12-07T09:44:58.026Z,-2.48
2022-12-07T09:47:24.997Z,-2.90
2022-12-07T09:49:52.014Z,-2.78
2022-12-07T09:52:22.431Z,-2.47
2022-12-07T09:54:51.061Z,-2.06
2022-12-07T09:57:19.437Z,-2.01
2022-12-07T09:59:46.712Z,-1.83
2022-12-07T10:02:26.082Z,-2.08
2022-12-07T10:04:53.214Z,-2.11
2022-12-07T10:07:20.335Z,-1.95
2022-12-07T10:09:47.281Z,-2.16
2022-12-07T10:15:18.395Z,-1.61
2022-12-07T10:17:52.399Z,-2.10
2022-12-07T10:20:27.915Z,-1.80
2022-12-07T10:22:55.772Z,-1.55
2022-12-07T10:25:27.851Z,-1.53
2022-12-07T10:28:13.896Z,-1.22
2022-12-07T10:31:04.471Z,-1.40
2022-12-07T10:33:51.278Z,-1.37
2022-12-07T10:36:33.481Z,-1.44
2022-12-07T10:39:15.931Z,-1.58
2022-12-07T10:42:03.551Z,-1.29
2022-12-07T10:44:32.718Z,-1.67
2022-12-07T10:47:08.678Z,-1.45
2022-12-07T10:49:42.058Z,-1.75
2022-12-07T10:55:23.588Z,-1.80
2022-12-07T10:58:05.793Z,-1.05
2022-12-07T11:00:42.076Z,-1.24
2022-12-07T11:03:29.385Z,-1.89
2022-12-07T11:06:15.631Z,-2.07
2022-12-07T11:09:18.110Z,-1.61
2022-12-07T11:12:18.686Z,-1.53
2022-12-07T11:14:57.994Z,-1.20
2022-12-07T11:17:56.227Z,-1.03
2022-12-07T11:20:47.026Z,-1.01
2022-12-07T11:23:25.780Z,-1.25
2022-12-07T11:26:50.071Z,-1.69
2022-12-07T11:29:36.015Z,-1.89
2022-12-07T11:32:13.630Z,-2.00
2022-12-07T11:34:57.244Z,-2.75
2022-12-07T11:37:38.183Z,-2.51
2022-12-07T11:40:39.626Z,-2.58
2022-12-07T11:43:36.049Z,-2.87
2022-12-07T11:46:18.971Z,-2.61
2022-12-07T11:49:00.035Z,-2.72
2022-12-07T11:51:33.203Z,-3.02
2022-12-07T11:54:05.074Z,-3.25
2022-12-07T11:56:39.129Z,-3.34
2022-12-07T11:59:30.830Z,-3.69
2022-12-07T12:02:18.233Z,-3.92
2022-12-07T12:05:04.378Z,-3.87
2022-12-07T12:10:24.125Z,-3.85
2022-12-07T12:16:08.937Z,-4.07
2022-12-07T12:19:02.701Z,-4.25
2022-12-07T12:21:31.649Z,-4.75
2022-12-07T12:24:06.797Z,-4.84
2022-12-07T12:26:36.376Z,-5.05
2022-12-07T12:29:05.646Z,-5.19
2022-12-07T12:31:37.604Z,-5.21
2022-12-07T12:34:26.228Z,-5.71
2022-12-07T12:36:53.330Z,-6.08
2022-12-07T12:39:21.913Z,-6.40
2022-12-07T12:41:49.000Z,-6.76
2022-12-07T12:44:16.197Z,-7.25
2022-12-07T12:46:54.757Z,-7.71
2022-12-07T12:49:22.360Z,-7.99
2022-12-07T12:51:54.329Z,-8.30
2022-12-07T12:54:32.596Z,-8.70
2022-12-07T12:57:23.619Z,-9.15
2022-12-07T12:59:53.608Z,-9.53
2022-12-07T13:02:31.134Z,-9.67
2022-12-07T13:05:03.713Z,-9.87
2022-12-07T13:07:47.914Z,-9.96
2022-12-07T13:10:29.751Z,-10.06
2022-12-07T13:13:16.445Z,-10.12
2022-12-07T13:15:56.043Z,-10.25
2022-12-07T13:18:29.092Z,-10.24
2022-12-07T13:21:09.006Z,-10.36
2022-12-07T13:23:49.469Z,-10.40
2022-12-07T13:26:18.307Z,-10.42
2022-12-07T13:29:06.968Z,-10.47
2022-12-07T13:31:47.402Z,-10.58
2022-12-07T13:34:34.096Z,-10.60
2022-12-07T13:37:03.180Z,-10.62
2022-12-07T13:39:34.547Z,-10.70
2022-12-07T13:42:29.319Z,-10.69
2022-12-07T13:45:00.052Z,-10.69
2022-12-07T13:47:32.690Z,-10.72
2022-12-07T13:50:00.903Z,-10.78
2022-12-07T13:52:30.136Z,-10.87
2022-12-07T13:55:03.055Z,-10.89
2022-12-07T13:57:32.204Z,-10.93
2022-12-07T13:59:59.407Z,-10.88
2022-12-07T14:02:34.841Z,-10.93
2022-12-07T14:05:11.726Z,-10.87
2022-12-07T14:07:53.892Z,-10.93
2022-12-07T14:10:50.169Z,-10.97
2022-12-07T14:13:40.628Z,-11.03
2022-12-07T14:16:36.288Z,-11.07
2022-12-07T14:19:48.742Z,-11.16
2022-12-07T14:22:21.436Z,-11.06
2022-12-07T14:24:48.672Z,-11.15
2022-12-07T14:27:20.920Z,-11.22
2022-12-07T14:29:48.659Z,-11.20
2022-12-07T14:32:29.376Z,-11.15
2022-12-07T14:35:01.599Z,-11.20
2022-12-07T14:37:31.154Z,-11.16
2022-12-07T14:39:58.187Z,-11.22
2022-12-07T14:42:28.440Z,-11.22
2022-12-07T14:44:56.962Z,-11.11
2022-12-07T14:50:17.203Z,-11.18
2022-12-07T14:55:44.378Z,-11.19
2022-12-07T14:58:16.048Z,-11.20
2022-12-07T15:00:43.117Z,-11.19
2022-12-07T15:03:10.405Z,-11.14
2022-12-07T15:05:37.876Z,-11.24
2022-12-07T15:08:05.034Z,-11.23
2022-12-07T15:10:34.406Z,-11.28
2022-12-07T15:13:27.747Z,-11.31
2022-12-07T15:16:01.726Z,-11.36
2022-12-07T15:18:28.794Z,-11.47
2022-12-07T15:20:56.928Z,-11.30
2022-12-07T15:23:24.591Z,-11.39
2022-12-07T15:25:52.039Z,-11.36
2022-12-07T15:28:19.176Z,-11.29
2022-12-07T15:30:46.761Z,-11.37
2022-12-07T15:33:15.837Z,-11.34
2022-12-07T15:35:44.246Z,-11.31
2022-12-07T15:38:11.776Z,-11.29
2022-12-07T15:40:38.842Z,-11.26
2022-12-07T15:43:26.385Z,-11.29
2022-12-07T15:45:53.564Z,-11.35
2022-12-07T15:48:29.147Z,-11.26
2022-12-07T15:51:04.854Z,-11.38
2022-12-07T15:53:31.825Z,-11.45
2022-12-07T15:55:59.032Z,-11.42
2022-12-07T15:58:26.411Z,-11.38
2022-12-07T16:00:54.513Z,-11.43
2022-12-07T16:03:24.416Z,-11.44
2022-12-07T16:05:52.949Z,-11.46
2022-12-07T16:08:21.234Z,-11.49
2022-12-07T16:10:49.632Z,-11.49
2022-12-07T16:13:19.401Z,-11.50
2022-12-07T16:15:51.792Z,-11.50
2022-12-07T16:18:19.313Z,-11.54
2022-12-07T16:20:49.736Z,-11.54
2022-12-07T16:23:22.135Z,-11.56
2022-12-07T16:25:49.984Z,-11.55
2022-12-07T16:28:17.100Z,-11.65
2022-12-07T16:30:44.048Z,-11.59
2022-12-07T16:33:11.657Z,-11.64
2022-12-07T16:35:45.041Z,-11.64
2022-12-07T16:38:12.442Z,-11.54
2022-12-07T16:40:40.275Z,-11.53
2022-12-07T16:43:07.703Z,-11.59
2022-12-07T16:45:39.929Z,-11.54
2022-12-07T16:48:07.049Z,-11.60
2022-12-07T16:50:34.610Z,-11.61
2022-12-07T16:53:01.953Z,-11.61
2022-12-07T16:55:29.078Z,-11.60
2022-12-07T16:57:56.284Z,-11.62
2022-12-07T17:00:23.319Z,-11.65
2022-12-07T17:02:50.467Z,-11.62
2022-12-07T17:05:17.702Z,-11.68
2022-12-07T17:07:44.847Z,-11.68
2022-12-07T17:10:12.316Z,-11.73
2022-12-07T17:12:40.191Z,-11.69
2022-12-07T17:15:28.018Z,-11.68
2022-12-07T17:18:03.671Z,-11.58
2022-12-07T17:20:30.736Z,-11.60
2022-12-07T17:22:57.860Z,-11.63
2022-12-07T17:25:25.136Z,-11.59
2022-12-07T17:30:42.855Z,-11.76
2022-12-07T17:36:24.842Z,-11.73
2022-12-07T17:39:03.159Z,-11.81
2022-12-07T17:41:49.052Z,-11.86
2022-12-07T17:44:19.536Z,-11.75
2022-12-07T17:49:31.543Z,-11.76
2022-12-07T17:52:17.064Z,-11.79
2022-12-07T17:54:47.446Z,-11.75
2022-12-07T17:57:15.156Z,-11.84
2022-12-07T17:59:42.385Z,-11.79
2022-12-07T18:05:17.194Z,-11.79
2022-12-07T18:07:51.801Z,-11.80
2022-12-07T18:10:20.050Z,-11.80
2022-12-07T18:12:52.005Z,-11.80
2022-12-07T18:15:20.409Z,-11.88
2022-12-07T18:17:49.675Z,-11.85
2022-12-07T18:20:21.235Z,-11.92
2022-12-07T18:22:49.394Z,-11.97
2022-12-07T18:25:20.985Z,-11.89
2022-12-07T18:27:58.466Z,-11.99
2022-12-07T18:33:24.112Z,-11.94
2022-12-07T18:35:51.410Z,-11.79
2022-12-07T18:38:18.945Z,-11.83
2022-12-07T18:40:49.290Z,-11.86
2022-12-07T18:43:16.558Z,-11.80
2022-12-07T18:45:54.311Z,-11.87
2022-12-07T18:48:24.005Z,-11.77
2022-12-07T18:51:07.851Z,-11.80
2022-12-07T18:53:35.820Z,-11.81
2022-12-07T18:56:09.628Z,-11.85
2022-12-07T18:58:36.834Z,-11.85
2022-12-07T19:01:04.046Z,-11.87
2022-12-07T19:03:33.676Z,-11.93
2022-12-07T19:06:07.419Z,-11.89
2022-12-07T19:08:45.294Z,-12.03
2022-12-07T19:11:41.049Z,-12.04
2022-12-07T19:14:08.352Z,-12.05
2022-12-07T19:16:54.458Z,-11.95
2022-12-07T19:19:24.030Z,-12.04
2022-12-07T19:21:51.414Z,-11.95
2022-12-07T19:24:23.135Z,-11.91
2022-12-07T19:26:59.022Z,-11.88
2022-12-07T19:29:28.274Z,-11.86
2022-12-07T19:32:02.902Z,-11.97
2022-12-07T19:34:29.922Z,-11.96
2022-12-07T19:36:59.248Z,-11.96
2022-12-07T19:39:26.291Z,-12.04
2022-12-07T19:41:54.016Z,-12.01
2022-12-07T19:44:25.967Z,-12.01
2022-12-07T19:47:04.247Z,-12.00
2022-12-07T19:49:35.851Z,-12.10
2022-12-07T19:52:06.059Z,-12.06
2022-12-07T19:54:35.115Z,-11.91
2022-12-07T19:57:05.174Z,-11.87
2022-12-07T19:59:32.284Z,-12.03
2022-12-07T20:01:59.861Z,-11.93
2022-12-07T20:04:32.807Z,-11.93
2022-12-07T20:07:01.129Z,-11.94
2022-12-07T20:09:28.236Z,-11.95
2022-12-07T20:12:21.939Z,-11.94
2022-12-07T20:14:49.598Z,-11.98
2022-12-07T20:17:16.839Z,-12.04
2022-12-07T20:19:44.297Z,-12.04
2022-12-07T20:24:54.470Z,-11.95
2022-12-07T20:27:21.465Z,-11.94
2022-12-07T20:29:50.884Z,-12.02
2022-12-07T20:32:18.074Z,-12.00
2022-12-07T20:34:46.966Z,-11.99
2022-12-07T20:37:13.911Z,-11.95
2022-12-07T20:39:41.159Z,-11.95
2022-12-07T20:42:27.762Z,-11.96
2022-12-07T20:44:58.259Z,-11.90
2022-12-07T20:47:31.830Z,-11.95
2022-12-07T20:49:59.034Z,-11.93
2022-12-07T20:52:27.295Z,-11.95
2022-12-07T20:54:54.661Z,-11.91
2022-12-07T20:57:21.687Z,-11.78
2022-12-07T20:59:48.633Z,-11.72
2022-12-07T21:02:15.569Z,-11.71
2022-12-07T21:04:42.866Z,-11.73
2022-12-07T21:07:13.143Z,-11.76
2022-12-07T21:09:40.158Z,-11.79
2022-12-07T21:12:11.476Z,-11.76
2022-12-07T21:14:42.314Z,-11.64
2022-12-07T21:17:09.667Z,-11.54
2022-12-07T21:19:37.245Z,-11.51
2022-12-07T21:22:04.859Z,-11.48
2022-12-07T21:24:32.169Z,-11.43
2022-12-07T21:29:44.568Z,-11.37
2022-12-07T21:32:14.638Z,-11.36
2022-12-07T21:34:41.834Z,-11.33
2022-12-07T21:37:08.764Z,-11.32
2022-12-07T21:39:35.898Z,-11.31
2022-12-07T21:42:02.893Z,-11.29
2022-12-07T21:44:29.873Z,-11.25
2022-12-07T21:46:57.165Z,-11.22
2022-12-07T21:49:24.152Z,-11.19
2022-12-07T21:51:51.163Z,-11.20
2022-12-07T21:54:22.782Z,-11.27
2022-12-07T21:56:52.790Z,-11.22
2022-12-07T21:59:21.405Z,-11.21
2022-12-07T22:01:49.451Z,-11.24
2022-12-07T22:04:23.065Z,-11.19
2022-12-07T22:06:51.088Z,-11.14
2022-12-07T22:09:19.017Z,-11.10
2022-12-07T22:11:46.690Z,-11.09
2022-12-07T22:14:32.695Z,-11.08
2022-12-07T22:16:59.819Z,-11.09
2022-12-07T22:19:27.217Z,-11.06
2022-12-07T22:21:54.320Z,-11.03
2022-12-07T22:24:26.583Z,-10.98
2022-12-07T22:26:53.673Z,-10.95
2022-12-07T22:29:30.183Z,-10.91
2022-12-07T22:31:57.195Z,-10.87
2022-12-07T22:34:24.255Z,-10.86
2022-12-07T22:36:51.618Z,-10.83
2022-12-07T22:39:18.681Z,-10.81
2022-12-07T22:41:45.654Z,-10.82
2022-12-07T22:44:12.756Z,-10.75
2022-12-07T22:46:40.907Z,-10.77
2022-12-07T22:49:08.095Z,-10.67
2022-12-07T22:51:37.071Z,-10.64
2022-12-07T22:54:06.576Z,-10.62
2022-12-07T22:56:36.161Z,-10.62
2022-12-07T22:59:04.372Z,-10.60
2022-12-07T23:01:31.399Z,-10.57
2022-12-07T23:03:58.786Z,-10.61
2022-12-07T23:06:27.986Z,-10.61
2022-12-07T23:08:59.991Z,-10.58
2022-12-07T23:11:48.974Z,-10.53
2022-12-07T23:14:36.311Z,-10.51
2022-12-07T23:17:04.240Z,-10.52
2022-12-07T23:19:31.184Z,-10.49
2022-12-07T23:21:58.162Z,-10.47
2022-12-07T23:24:25.386Z,-10.45
2022-12-07T23:26:52.662Z,-10.47
2022-12-07T23:29:19.658Z,-10.52
2022-12-07T23:31:48.038Z,-10.48
2022-12-07T23:34:15.476Z,-10.49
2022-12-07T23:36:42.677Z,-10.47
2022-12-07T23:39:10.567Z,-10.48
2022-12-07T23:41:38.274Z,-10.47
2022-12-07T23:44:05.304Z,-10.49
2022-12-07T23:46:33.321Z,-10.46
2022-12-07T23:49:02.157Z,-10.49
2022-12-07T23:51:29.308Z,-10.50
2022-12-07T23:53:57.678Z,-10.49
2022-12-07T23:56:27.486Z,-10.46
2022-12-07T23:58:55.491Z,-10.45
